sensor_id;sensor_type;location;lat;lon;timestamp;temperature;humidity
66708;DHT22;53622;0.000;0.000;2024-03-23T00:55:29;21.60;56.50
66708;DHT22;53622;0.000;0.000;2024-03-23T00:57:57;21.60;56.60
66708;DHT22;53622;0.000;0.000;2024-03-23T01:00:24;21.60;56.50
66708;DHT22;53622;0.000;0.000;2024-03-23T01:02:52;21.60;56.60
66708;DHT22;53622;0.000;0.000;2024-03-23T01:05:18;21.60;56.50
66708;DHT22;53622;0.000;0.000;2024-03-23T01:07:46;21.60;56.40
66708;DHT22;53622;0.000;0.000;2024-03-23T01:10:13;21.60;56.40
66708;DHT22;53622;0.000;0.000;2024-03-23T01:12:42;21.50;56.30
66708;DHT22;53622;0.000;0.000;2024-03-23T01:15:10;21.60;56.50
66708;DHT22;53622;0.000;0.000;2024-03-23T01:17:36;21.50;56.30
66708;DHT22;53622;0.000;0.000;2024-03-23T01:20:05;21.60;56.30
66708;DHT22;53622;0.000;0.000;2024-03-23T01:22:32;21.60;56.30
66708;DHT22;53622;0.000;0.000;2024-03-23T01:25:00;21.50;56.30
66708;DHT22;53622;0.000;0.000;2024-03-23T01:27:27;21.50;56.20
66708;DHT22;53622;0.000;0.000;2024-03-23T01:29:56;21.50;56.30
66708;DHT22;53622;0.000;0.000;2024-03-23T01:32:23;21.50;56.30
66708;DHT22;53622;0.000;0.000;2024-03-23T01:34:51;21.50;56.80
66708;DHT22;53622;0.000;0.000;2024-03-23T01:37:18;21.50;56.20
66708;DHT22;53622;0.000;0.000;2024-03-23T01:39:45;21.50;56.20
66708;DHT22;53622;0.000;0.000;2024-03-23T01:42:12;21.50;56.40
66708;DHT22;53622;0.000;0.000;2024-03-23T01:44:40;21.50;56.30
66708;DHT22;53622;0.000;0.000;2024-03-23T01:47:08;21.50;56.20
66708;DHT22;53622;0.000;0.000;2024-03-23T01:49:36;21.50;56.20
66708;DHT22;53622;0.000;0.000;2024-03-23T01:52:03;21.50;56.20
66708;DHT22;53622;0.000;0.000;2024-03-23T01:54:31;21.50;56.10
66708;DHT22;53622;0.000;0.000;2024-03-23T01:56:58;21.50;56.20
66708;DHT22;53622;0.000;0.000;2024-03-23T01:59:26;21.50;56.30
66708;DHT22;53622;0.000;0.000;2024-03-23T02:01:53;21.50;56.10
66708;DHT22;53622;0.000;0.000;2024-03-23T02:04:23;21.50;56.30
66708;DHT22;53622;0.000;0.000;2024-03-23T02:06:50;21.50;56.20
66708;DHT22;53622;0.000;0.000;2024-03-23T02:09:18;21.50;56.30
66708;DHT22;53622;0.000;0.000;2024-03-23T02:11:45;21.50;56.30
66708;DHT22;53622;0.000;0.000;2024-03-23T02:14:12;21.50;56.30
66708;DHT22;53622;0.000;0.000;2024-03-23T02:16:39;21.50;56.30
66708;DHT22;53622;0.000;0.000;2024-03-23T02:19:07;21.50;56.30
66708;DHT22;53622;0.000;0.000;2024-03-23T02:21:36;21.50;56.30
66708;DHT22;53622;0.000;0.000;2024-03-23T02:24:05;21.50;56.30
66708;DHT22;53622;0.000;0.000;2024-03-23T02:26:32;21.50;56.20
66708;DHT22;53622;0.000;0.000;2024-03-23T02:29:00;21.50;56.20
66708;DHT22;53622;0.000;0.000;2024-03-23T02:31:27;21.40;56.10
66708;DHT22;53622;0.000;0.000;2024-03-23T02:33:55;21.50;56.00
66708;DHT22;53622;0.000;0.000;2024-03-23T02:36:22;21.50;56.80
66708;DHT22;53622;0.000;0.000;2024-03-23T02:38:49;21.40;56.10
66708;DHT22;53622;0.000;0.000;2024-03-23T02:41:18;21.40;56.00
66708;DHT22;53622;0.000;0.000;2024-03-23T02:43:49;21.40;56.00
66708;DHT22;53622;0.000;0.000;2024-03-23T02:46:16;21.40;56.10
66708;DHT22;53622;0.000;0.000;2024-03-23T02:48:44;21.40;56.10
66708;DHT22;53622;0.000;0.000;2024-03-23T02:51:10;21.40;56.00
66708;DHT22;53622;0.000;0.000;2024-03-23T02:53:38;21.40;56.10
66708;DHT22;53622;0.000;0.000;2024-03-23T02:56:05;21.40;56.00
66708;DHT22;53622;0.000;0.000;2024-03-23T02:58:35;21.40;56.00
66708;DHT22;53622;0.000;0.000;2024-03-23T03:01:01;21.40;56.10
66708;DHT22;53622;0.000;0.000;2024-03-23T03:03:29;21.40;56.10
66708;DHT22;53622;0.000;0.000;2024-03-23T03:05:56;21.40;56.10
66708;DHT22;53622;0.000;0.000;2024-03-23T03:08:24;21.40;56.10
66708;DHT22;53622;0.000;0.000;2024-03-23T03:10:51;21.40;56.10
66708;DHT22;53622;0.000;0.000;2024-03-23T03:13:19;21.40;56.10
66708;DHT22;53622;0.000;0.000;2024-03-23T03:15:47;21.40;56.10
66708;DHT22;53622;0.000;0.000;2024-03-23T03:18:14;21.40;56.10
66708;DHT22;53622;0.000;0.000;2024-03-23T03:20:42;21.40;56.10
66708;DHT22;53622;0.000;0.000;2024-03-23T03:23:10;21.40;56.10
66708;DHT22;53622;0.000;0.000;2024-03-23T03:25:37;21.40;56.10
66708;DHT22;53622;0.000;0.000;2024-03-23T03:28:05;21.40;56.10
66708;DHT22;53622;0.000;0.000;2024-03-23T03:30:32;21.40;56.10
66708;DHT22;53622;0.000;0.000;2024-03-23T03:33:01;21.40;56.10
66708;DHT22;53622;0.000;0.000;2024-03-23T03:35:28;21.40;56.10
66708;DHT22;53622;0.000;0.000;2024-03-23T03:37:56;21.40;56.10
66708;DHT22;53622;0.000;0.000;2024-03-23T03:40:23;21.40;56.10
66708;DHT22;53622;0.000;0.000;2024-03-23T03:42:51;21.40;56.10
66708;DHT22;53622;0.000;0.000;2024-03-23T03:45:18;21.40;56.10
66708;DHT22;53622;0.000;0.000;2024-03-23T03:47:46;21.40;56.10
66708;DHT22;53622;0.000;0.000;2024-03-23T03:50:14;21.40;56.20
66708;DHT22;53622;0.000;0.000;2024-03-23T03:52:42;21.40;56.20
66708;DHT22;53622;0.000;0.000;2024-03-23T03:55:13;21.40;56.20
66708;DHT22;53622;0.000;0.000;2024-03-23T03:57:41;21.40;56.20
66708;DHT22;53622;0.000;0.000;2024-03-23T04:00:09;21.40;56.20
66708;DHT22;53622;0.000;0.000;2024-03-23T04:02:37;21.40;56.20
66708;DHT22;53622;0.000;0.000;2024-03-23T04:05:06;21.40;56.20
66708;DHT22;53622;0.000;0.000;2024-03-23T04:07:34;21.40;56.20
66708;DHT22;53622;0.000;0.000;2024-03-23T04:10:02;21.40;56.20
66708;DHT22;53622;0.000;0.000;2024-03-23T04:12:33;21.40;56.20
66708;DHT22;53622;0.000;0.000;2024-03-23T04:15:01;21.40;56.20
66708;DHT22;53622;0.000;0.000;2024-03-23T04:17:30;21.40;56.20
66708;DHT22;53622;0.000;0.000;2024-03-23T04:20:01;21.40;56.20
66708;DHT22;53622;0.000;0.000;2024-03-23T04:22:28;21.40;56.30
66708;DHT22;53622;0.000;0.000;2024-03-23T04:24:57;21.40;56.20
66708;DHT22;53622;0.000;0.000;2024-03-23T04:27:24;21.30;56.20
66708;DHT22;53622;0.000;0.000;2024-03-23T04:29:52;21.30;56.20
66708;DHT22;53622;0.000;0.000;2024-03-23T04:32:19;21.30;56.30
66708;DHT22;53622;0.000;0.000;2024-03-23T04:34:48;21.30;56.30
66708;DHT22;53622;0.000;0.000;2024-03-23T04:37:15;21.30;56.30
66708;DHT22;53622;0.000;0.000;2024-03-23T04:39:42;21.30;56.30
66708;DHT22;53622;0.000;0.000;2024-03-23T04:42:14;21.30;56.30
66708;DHT22;53622;0.000;0.000;2024-03-23T04:44:42;21.30;56.30
66708;DHT22;53622;0.000;0.000;2024-03-23T04:47:11;21.30;56.30
66708;DHT22;53622;0.000;0.000;2024-03-23T04:49:39;21.30;56.90
66708;DHT22;53622;0.000;0.000;2024-03-23T04:52:06;21.30;56.30
66708;DHT22;53622;0.000;0.000;2024-03-23T04:54:33;21.30;56.30
66708;DHT22;53622;0.000;0.000;2024-03-23T04:57:01;21.30;56.30
66708;DHT22;53622;0.000;0.000;2024-03-23T04:59:29;21.30;56.30
66708;DHT22;53622;0.000;0.000;2024-03-23T05:01:57;21.30;56.40
66708;DHT22;53622;0.000;0.000;2024-03-23T05:04:24;21.30;56.50
66708;DHT22;53622;0.000;0.000;2024-03-23T05:06:51;21.30;56.60
66708;DHT22;53622;0.000;0.000;2024-03-23T05:09:18;21.30;56.50
66708;DHT22;53622;0.000;0.000;2024-03-23T05:11:46;21.30;56.50
66708;DHT22;53622;0.000;0.000;2024-03-23T05:14:13;21.30;56.40
66708;DHT22;53622;0.000;0.000;2024-03-23T05:16:42;21.30;56.40
66708;DHT22;53622;0.000;0.000;2024-03-23T05:19:09;21.30;56.40
66708;DHT22;53622;0.000;0.000;2024-03-23T05:21:37;21.30;56.40
66708;DHT22;53622;0.000;0.000;2024-03-23T05:24:04;21.30;56.40
66708;DHT22;53622;0.000;0.000;2024-03-23T05:26:32;21.30;56.40
66708;DHT22;53622;0.000;0.000;2024-03-23T05:29:00;21.30;56.40
66708;DHT22;53622;0.000;0.000;2024-03-23T05:31:29;21.30;56.40
66708;DHT22;53622;0.000;0.000;2024-03-23T05:33:58;21.30;56.40
66708;DHT22;53622;0.000;0.000;2024-03-23T05:36:25;21.30;56.40
66708;DHT22;53622;0.000;0.000;2024-03-23T05:38:52;21.30;56.50
66708;DHT22;53622;0.000;0.000;2024-03-23T05:41:20;21.30;56.50
66708;DHT22;53622;0.000;0.000;2024-03-23T05:43:48;21.30;56.50
66708;DHT22;53622;0.000;0.000;2024-03-23T05:46:16;21.30;56.50
66708;DHT22;53622;0.000;0.000;2024-03-23T05:48:42;21.30;56.50
66708;DHT22;53622;0.000;0.000;2024-03-23T05:51:11;21.30;56.50
66708;DHT22;53622;0.000;0.000;2024-03-23T05:53:39;21.30;56.50
66708;DHT22;53622;0.000;0.000;2024-03-23T05:56:07;21.30;56.70
66708;DHT22;53622;0.000;0.000;2024-03-23T05:58:33;21.30;56.70
66708;DHT22;53622;0.000;0.000;2024-03-23T06:01:01;21.30;56.70
66708;DHT22;53622;0.000;0.000;2024-03-23T06:03:29;21.30;56.70
66708;DHT22;53622;0.000;0.000;2024-03-23T06:05:56;21.30;56.80
66708;DHT22;53622;0.000;0.000;2024-03-23T06:08:25;21.30;56.90
66708;DHT22;53622;0.000;0.000;2024-03-23T06:10:52;21.30;57.00
66708;DHT22;53622;0.000;0.000;2024-03-23T06:13:20;21.30;57.10
66708;DHT22;53622;0.000;0.000;2024-03-23T06:15:51;21.30;57.20
66708;DHT22;53622;0.000;0.000;2024-03-23T06:18:18;21.30;57.10
66708;DHT22;53622;0.000;0.000;2024-03-23T06:20:45;21.30;57.20
66708;DHT22;53622;0.000;0.000;2024-03-23T06:23:12;21.30;57.20
66708;DHT22;53622;0.000;0.000;2024-03-23T06:25:43;21.30;57.30
66708;DHT22;53622;0.000;0.000;2024-03-23T06:28:10;21.30;56.90
66708;DHT22;53622;0.000;0.000;2024-03-23T06:30:38;21.30;56.70
66708;DHT22;53622;0.000;0.000;2024-03-23T06:33:05;21.30;56.60
66708;DHT22;53622;0.000;0.000;2024-03-23T06:35:33;21.20;56.40
66708;DHT22;53622;0.000;0.000;2024-03-23T06:37:59;21.20;56.40
66708;DHT22;53622;0.000;0.000;2024-03-23T06:40:27;21.20;56.30
66708;DHT22;53622;0.000;0.000;2024-03-23T06:42:55;21.20;56.30
66708;DHT22;53622;0.000;0.000;2024-03-23T06:45:23;21.20;56.20
66708;DHT22;53622;0.000;0.000;2024-03-23T06:47:50;21.20;56.70
66708;DHT22;53622;0.000;0.000;2024-03-23T06:50:18;21.20;56.70
66708;DHT22;53622;0.000;0.000;2024-03-23T06:52:45;21.20;56.80
66708;DHT22;53622;0.000;0.000;2024-03-23T06:55:13;21.20;56.90
66708;DHT22;53622;0.000;0.000;2024-03-23T06:57:40;21.20;57.00
66708;DHT22;53622;0.000;0.000;2024-03-23T07:00:10;21.20;57.00
66708;DHT22;53622;0.000;0.000;2024-03-23T07:02:37;21.20;57.10
66708;DHT22;53622;0.000;0.000;2024-03-23T07:05:05;21.20;57.10
66708;DHT22;53622;0.000;0.000;2024-03-23T07:07:33;21.20;57.10
66708;DHT22;53622;0.000;0.000;2024-03-23T07:10:01;21.20;57.20
66708;DHT22;53622;0.000;0.000;2024-03-23T07:12:28;21.20;57.20
66708;DHT22;53622;0.000;0.000;2024-03-23T07:14:56;21.20;57.20
66708;DHT22;53622;0.000;0.000;2024-03-23T07:17:24;21.20;57.20
66708;DHT22;53622;0.000;0.000;2024-03-23T07:19:51;21.20;57.30
66708;DHT22;53622;0.000;0.000;2024-03-23T07:22:18;21.20;57.30
66708;DHT22;53622;0.000;0.000;2024-03-23T07:24:46;21.20;57.30
66708;DHT22;53622;0.000;0.000;2024-03-23T07:27:13;21.20;57.30
66708;DHT22;53622;0.000;0.000;2024-03-23T07:29:41;21.20;57.40
66708;DHT22;53622;0.000;0.000;2024-03-23T07:32:07;21.20;57.40
66708;DHT22;53622;0.000;0.000;2024-03-23T07:34:36;21.20;57.40
66708;DHT22;53622;0.000;0.000;2024-03-23T07:37:03;21.20;57.40
66708;DHT22;53622;0.000;0.000;2024-03-23T07:39:31;21.20;57.40
66708;DHT22;53622;0.000;0.000;2024-03-23T07:42:00;21.20;57.50
66708;DHT22;53622;0.000;0.000;2024-03-23T07:44:28;21.20;57.50
66708;DHT22;53622;0.000;0.000;2024-03-23T07:46:55;21.20;57.50
66708;DHT22;53622;0.000;0.000;2024-03-23T07:49:22;21.20;57.40
66708;DHT22;53622;0.000;0.000;2024-03-23T07:51:50;21.20;57.40
66708;DHT22;53622;0.000;0.000;2024-03-23T07:54:18;21.20;57.40
66708;DHT22;53622;0.000;0.000;2024-03-23T07:56:45;21.20;57.50
66708;DHT22;53622;0.000;0.000;2024-03-23T07:59:13;21.20;57.40
66708;DHT22;53622;0.000;0.000;2024-03-23T08:01:40;21.20;57.40
66708;DHT22;53622;0.000;0.000;2024-03-23T08:04:07;21.20;57.40
66708;DHT22;53622;0.000;0.000;2024-03-23T08:06:34;21.20;57.40
66708;DHT22;53622;0.000;0.000;2024-03-23T08:09:04;21.20;57.40
66708;DHT22;53622;0.000;0.000;2024-03-23T08:11:31;21.20;57.30
66708;DHT22;53622;0.000;0.000;2024-03-23T08:14:01;21.20;57.10
66708;DHT22;53622;0.000;0.000;2024-03-23T08:16:28;21.20;57.30
66708;DHT22;53622;0.000;0.000;2024-03-23T08:18:55;21.20;57.40
66708;DHT22;53622;0.000;0.000;2024-03-23T08:21:22;21.20;57.40
66708;DHT22;53622;0.000;0.000;2024-03-23T08:23:51;21.20;57.40
66708;DHT22;53622;0.000;0.000;2024-03-23T08:26:19;21.20;57.40
66708;DHT22;53622;0.000;0.000;2024-03-23T08:28:47;21.20;57.50
66708;DHT22;53622;0.000;0.000;2024-03-23T08:31:14;21.20;57.60
66708;DHT22;53622;0.000;0.000;2024-03-23T08:33:42;21.20;57.60
66708;DHT22;53622;0.000;0.000;2024-03-23T08:36:10;21.20;57.40
66708;DHT22;53622;0.000;0.000;2024-03-23T08:38:41;21.20;57.30
66708;DHT22;53622;0.000;0.000;2024-03-23T08:41:08;21.20;57.40
66708;DHT22;53622;0.000;0.000;2024-03-23T08:43:39;21.20;57.50
66708;DHT22;53622;0.000;0.000;2024-03-23T08:46:06;21.20;57.60
66708;DHT22;53622;0.000;0.000;2024-03-23T08:48:35;21.20;57.70
66708;DHT22;53622;0.000;0.000;2024-03-23T08:51:02;21.20;57.70
66708;DHT22;53622;0.000;0.000;2024-03-23T08:53:30;21.20;57.60
66708;DHT22;53622;0.000;0.000;2024-03-23T08:55:58;21.20;57.60
66708;DHT22;53622;0.000;0.000;2024-03-23T08:58:27;21.20;57.60
66708;DHT22;53622;0.000;0.000;2024-03-23T09:01:02;21.20;57.60
66708;DHT22;53622;0.000;0.000;2024-03-23T09:03:30;21.20;57.60
66708;DHT22;53622;0.000;0.000;2024-03-23T09:05:57;21.20;57.60
66708;DHT22;53622;0.000;0.000;2024-03-23T09:08:25;21.20;57.70
66708;DHT22;53622;0.000;0.000;2024-03-23T09:10:52;21.20;57.60
66708;DHT22;53622;0.000;0.000;2024-03-23T09:13:21;21.20;57.60
66708;DHT22;53622;0.000;0.000;2024-03-23T09:15:49;21.20;56.20
66708;DHT22;53622;0.000;0.000;2024-03-23T09:18:18;21.10;55.60
66708;DHT22;53622;0.000;0.000;2024-03-23T09:20:45;21.10;55.70
66708;DHT22;53622;0.000;0.000;2024-03-23T09:23:13;21.10;56.70
66708;DHT22;53622;0.000;0.000;2024-03-23T09:25:39;21.10;56.90
66708;DHT22;53622;0.000;0.000;2024-03-23T09:28:08;21.10;56.90
66708;DHT22;53622;0.000;0.000;2024-03-23T09:30:35;21.10;56.90
66708;DHT22;53622;0.000;0.000;2024-03-23T09:33:08;21.10;56.90
66708;DHT22;53622;0.000;0.000;2024-03-23T09:35:38;21.20;57.00
66708;DHT22;53622;0.000;0.000;2024-03-23T09:38:06;21.20;57.10
66708;DHT22;53622;0.000;0.000;2024-03-23T09:40:34;21.20;57.00
66708;DHT22;53622;0.000;0.000;2024-03-23T09:43:02;21.10;57.00
66708;DHT22;53622;0.000;0.000;2024-03-23T09:45:29;21.10;56.90
66708;DHT22;53622;0.000;0.000;2024-03-23T09:47:57;21.20;56.90
66708;DHT22;53622;0.000;0.000;2024-03-23T09:50:24;21.20;56.90
66708;DHT22;53622;0.000;0.000;2024-03-23T09:52:53;21.20;56.90
66708;DHT22;53622;0.000;0.000;2024-03-23T09:55:20;21.10;56.90
66708;DHT22;53622;0.000;0.000;2024-03-23T09:57:47;21.20;56.90
66708;DHT22;53622;0.000;0.000;2024-03-23T10:00:15;21.10;56.80
66708;DHT22;53622;0.000;0.000;2024-03-23T10:02:43;21.10;56.70
66708;DHT22;53622;0.000;0.000;2024-03-23T10:05:20;21.20;56.80
66708;DHT22;53622;0.000;0.000;2024-03-23T10:07:49;21.20;56.90
66708;DHT22;53622;0.000;0.000;2024-03-23T10:10:17;21.20;56.90
66708;DHT22;53622;0.000;0.000;2024-03-23T10:12:46;21.10;56.80
66708;DHT22;53622;0.000;0.000;2024-03-23T10:15:21;21.20;56.80
66708;DHT22;53622;0.000;0.000;2024-03-23T10:17:49;21.20;56.80
66708;DHT22;53622;0.000;0.000;2024-03-23T10:20:20;21.20;56.90
66708;DHT22;53622;0.000;0.000;2024-03-23T10:22:49;21.20;56.90
66708;DHT22;53622;0.000;0.000;2024-03-23T10:25:22;21.20;56.90
66708;DHT22;53622;0.000;0.000;2024-03-23T10:27:58;21.20;56.90
66708;DHT22;53622;0.000;0.000;2024-03-23T10:30:26;21.20;56.90
66708;DHT22;53622;0.000;0.000;2024-03-23T10:33:07;21.20;56.80
66708;DHT22;53622;0.000;0.000;2024-03-23T10:35:34;21.20;56.80
66708;DHT22;53622;0.000;0.000;2024-03-23T10:38:04;21.20;56.70
66708;DHT22;53622;0.000;0.000;2024-03-23T10:40:34;21.20;56.70
66708;DHT22;53622;0.000;0.000;2024-03-23T10:43:03;21.20;56.70
66708;DHT22;53622;0.000;0.000;2024-03-23T10:45:30;21.20;56.70
66708;DHT22;53622;0.000;0.000;2024-03-23T10:47:58;21.20;56.80
66708;DHT22;53622;0.000;0.000;2024-03-23T10:50:25;21.20;56.80
66708;DHT22;53622;0.000;0.000;2024-03-23T10:52:53;21.20;56.80
66708;DHT22;53622;0.000;0.000;2024-03-23T10:55:23;21.20;57.40
66708;DHT22;53622;0.000;0.000;2024-03-23T10:57:54;21.20;56.80
66708;DHT22;53622;0.000;0.000;2024-03-23T11:00:22;21.20;56.70
66708;DHT22;53622;0.000;0.000;2024-03-23T11:02:50;21.20;56.70
66708;DHT22;53622;0.000;0.000;2024-03-23T11:05:30;21.20;56.80
66708;DHT22;53622;0.000;0.000;2024-03-23T11:07:58;21.20;56.70
66708;DHT22;53622;0.000;0.000;2024-03-23T11:10:26;21.20;56.80
66708;DHT22;53622;0.000;0.000;2024-03-23T11:12:57;21.20;56.70
66708;DHT22;53622;0.000;0.000;2024-03-23T11:15:24;21.20;56.70
66708;DHT22;53622;0.000;0.000;2024-03-23T11:18:05;21.20;56.70
66708;DHT22;53622;0.000;0.000;2024-03-23T11:20:32;21.20;56.60
66708;DHT22;53622;0.000;0.000;2024-03-23T11:23:01;21.20;56.70
66708;DHT22;53622;0.000;0.000;2024-03-23T11:25:28;21.20;56.70
66708;DHT22;53622;0.000;0.000;2024-03-23T11:28:08;21.20;56.70
66708;DHT22;53622;0.000;0.000;2024-03-23T11:30:35;21.20;56.70
66708;DHT22;53622;0.000;0.000;2024-03-23T11:33:04;21.20;56.80
66708;DHT22;53622;0.000;0.000;2024-03-23T11:35:33;21.20;56.80
66708;DHT22;53622;0.000;0.000;2024-03-23T11:38:05;21.20;56.80
66708;DHT22;53622;0.000;0.000;2024-03-23T11:40:32;21.20;56.90
66708;DHT22;53622;0.000;0.000;2024-03-23T11:43:03;21.20;56.90
66708;DHT22;53622;0.000;0.000;2024-03-23T11:45:34;21.20;57.00
66708;DHT22;53622;0.000;0.000;2024-03-23T11:48:05;21.20;57.00
66708;DHT22;53622;0.000;0.000;2024-03-23T11:50:32;21.20;57.00
66708;DHT22;53622;0.000;0.000;2024-03-23T11:53:12;21.20;57.00
66708;DHT22;53622;0.000;0.000;2024-03-23T11:55:43;21.20;57.00
66708;DHT22;53622;0.000;0.000;2024-03-23T11:58:13;21.20;57.00
66708;DHT22;53622;0.000;0.000;2024-03-23T12:00:40;21.20;57.00
66708;DHT22;53622;0.000;0.000;2024-03-23T12:03:08;21.20;57.00
66708;DHT22;53622;0.000;0.000;2024-03-23T12:05:37;21.20;57.00
66708;DHT22;53622;0.000;0.000;2024-03-23T12:08:16;21.20;57.00
66708;DHT22;53622;0.000;0.000;2024-03-23T12:10:46;21.20;57.00
66708;DHT22;53622;0.000;0.000;2024-03-23T12:13:20;21.20;57.00
66708;DHT22;53622;0.000;0.000;2024-03-23T12:15:48;21.20;57.00
66708;DHT22;53622;0.000;0.000;2024-03-23T12:18:17;21.20;57.00
66708;DHT22;53622;0.000;0.000;2024-03-23T12:20:44;21.20;56.90
66708;DHT22;53622;0.000;0.000;2024-03-23T12:23:12;21.20;56.90
66708;DHT22;53622;0.000;0.000;2024-03-23T12:25:42;21.20;56.90
66708;DHT22;53622;0.000;0.000;2024-03-23T12:28:10;21.20;57.40
66708;DHT22;53622;0.000;0.000;2024-03-23T12:30:40;21.20;56.80
66708;DHT22;53622;0.000;0.000;2024-03-23T12:33:07;21.20;56.80
66708;DHT22;53622;0.000;0.000;2024-03-23T12:35:34;21.20;56.80
66708;DHT22;53622;0.000;0.000;2024-03-23T12:38:02;21.20;56.70
66708;DHT22;53622;0.000;0.000;2024-03-23T12:40:29;21.20;56.80
66708;DHT22;53622;0.000;0.000;2024-03-23T12:42:56;21.20;56.70
66708;DHT22;53622;0.000;0.000;2024-03-23T12:45:23;21.20;56.70
66708;DHT22;53622;0.000;0.000;2024-03-23T12:47:53;21.20;56.80
66708;DHT22;53622;0.000;0.000;2024-03-23T12:50:20;21.20;56.70
66708;DHT22;53622;0.000;0.000;2024-03-23T12:52:49;21.20;56.70
66708;DHT22;53622;0.000;0.000;2024-03-23T12:55:15;21.20;56.70
66708;DHT22;53622;0.000;0.000;2024-03-23T12:57:43;21.20;56.70
66708;DHT22;53622;0.000;0.000;2024-03-23T13:00:11;21.20;56.70
66708;DHT22;53622;0.000;0.000;2024-03-23T13:02:39;21.20;56.60
66708;DHT22;53622;0.000;0.000;2024-03-23T13:05:08;21.20;56.60
66708;DHT22;53622;0.000;0.000;2024-03-23T13:07:36;21.20;56.50
66708;DHT22;53622;0.000;0.000;2024-03-23T13:10:05;21.20;56.50
66708;DHT22;53622;0.000;0.000;2024-03-23T13:12:33;21.20;56.50
66708;DHT22;53622;0.000;0.000;2024-03-23T13:15:00;21.20;56.50
66708;DHT22;53622;0.000;0.000;2024-03-23T13:17:28;21.20;56.50
66708;DHT22;53622;0.000;0.000;2024-03-23T13:19:56;21.20;56.40
66708;DHT22;53622;0.000;0.000;2024-03-23T13:22:24;21.20;56.40
66708;DHT22;53622;0.000;0.000;2024-03-23T13:24:52;21.20;56.40
66708;DHT22;53622;0.000;0.000;2024-03-23T13:27:19;21.20;56.40
66708;DHT22;53622;0.000;0.000;2024-03-23T13:29:46;21.20;56.40
66708;DHT22;53622;0.000;0.000;2024-03-23T13:32:13;21.10;57.00
66708;DHT22;53622;0.000;0.000;2024-03-23T13:34:41;21.20;56.40
66708;DHT22;53622;0.000;0.000;2024-03-23T13:37:08;21.20;56.30
66708;DHT22;53622;0.000;0.000;2024-03-23T13:39:37;21.10;56.20
66708;DHT22;53622;0.000;0.000;2024-03-23T13:42:04;21.10;56.20
66708;DHT22;53622;0.000;0.000;2024-03-23T13:44:32;21.20;56.20
66708;DHT22;53622;0.000;0.000;2024-03-23T13:46:59;21.10;56.20
66708;DHT22;53622;0.000;0.000;2024-03-23T13:49:28;21.20;56.20
66708;DHT22;53622;0.000;0.000;2024-03-23T13:51:56;21.10;56.20
66708;DHT22;53622;0.000;0.000;2024-03-23T13:54:24;21.10;56.20
66708;DHT22;53622;0.000;0.000;2024-03-23T13:56:53;21.10;56.20
66708;DHT22;53622;0.000;0.000;2024-03-23T13:59:22;21.10;56.20
66708;DHT22;53622;0.000;0.000;2024-03-23T14:01:49;21.10;56.10
66708;DHT22;53622;0.000;0.000;2024-03-23T14:04:17;21.10;56.10
66708;DHT22;53622;0.000;0.000;2024-03-23T14:06:46;21.10;56.10
66708;DHT22;53622;0.000;0.000;2024-03-23T14:09:14;21.10;56.20
66708;DHT22;53622;0.000;0.000;2024-03-23T14:11:47;21.10;56.10
66708;DHT22;53622;0.000;0.000;2024-03-23T14:14:16;21.10;56.00
66708;DHT22;53622;0.000;0.000;2024-03-23T14:16:43;21.10;56.00
66708;DHT22;53622;0.000;0.000;2024-03-23T14:19:11;21.10;55.90
66708;DHT22;53622;0.000;0.000;2024-03-23T14:21:38;21.10;55.90
66708;DHT22;53622;0.000;0.000;2024-03-23T14:24:06;21.10;55.90
66708;DHT22;53622;0.000;0.000;2024-03-23T14:26:33;21.10;55.90
66708;DHT22;53622;0.000;0.000;2024-03-23T14:29:01;21.10;55.90
66708;DHT22;53622;0.000;0.000;2024-03-23T14:31:30;21.10;55.90
66708;DHT22;53622;0.000;0.000;2024-03-23T14:33:58;21.10;55.90
66708;DHT22;53622;0.000;0.000;2024-03-23T14:36:26;21.10;55.90
66708;DHT22;53622;0.000;0.000;2024-03-23T14:38:54;21.10;56.00
66708;DHT22;53622;0.000;0.000;2024-03-23T14:41:21;21.10;56.00
66708;DHT22;53622;0.000;0.000;2024-03-23T14:43:48;21.10;55.90
66708;DHT22;53622;0.000;0.000;2024-03-23T14:46:17;21.10;55.90
66708;DHT22;53622;0.000;0.000;2024-03-23T14:48:46;21.10;56.00
66708;DHT22;53622;0.000;0.000;2024-03-23T14:51:13;21.10;56.00
66708;DHT22;53622;0.000;0.000;2024-03-23T14:53:44;21.10;55.90
66708;DHT22;53622;0.000;0.000;2024-03-23T14:56:11;21.10;55.90
66708;DHT22;53622;0.000;0.000;2024-03-23T14:58:42;21.10;55.90
66708;DHT22;53622;0.000;0.000;2024-03-23T15:01:09;21.10;55.90
66708;DHT22;53622;0.000;0.000;2024-03-23T15:03:37;21.10;55.90
66708;DHT22;53622;0.000;0.000;2024-03-23T15:06:07;21.10;55.90
66708;DHT22;53622;0.000;0.000;2024-03-23T15:08:36;21.10;55.90
66708;DHT22;53622;0.000;0.000;2024-03-23T15:11:03;21.10;55.80
66708;DHT22;53622;0.000;0.000;2024-03-23T15:13:32;21.10;55.90
66708;DHT22;53622;0.000;0.000;2024-03-23T15:15:59;21.10;55.80
66708;DHT22;53622;0.000;0.000;2024-03-23T15:18:27;21.10;55.80
66708;DHT22;53622;0.000;0.000;2024-03-23T15:20:55;21.10;55.80
66708;DHT22;53622;0.000;0.000;2024-03-23T15:23:24;21.10;55.70
66708;DHT22;53622;0.000;0.000;2024-03-23T15:25:54;21.10;55.70
66708;DHT22;53622;0.000;0.000;2024-03-23T15:28:23;21.10;55.70
66708;DHT22;53622;0.000;0.000;2024-03-23T15:30:49;21.10;55.70
66708;DHT22;53622;0.000;0.000;2024-03-23T15:33:17;21.10;54.10
66708;DHT22;53622;0.000;0.000;2024-03-23T15:35:44;21.10;53.90
66708;DHT22;53622;0.000;0.000;2024-03-23T15:38:12;21.10;54.70
66708;DHT22;53622;0.000;0.000;2024-03-23T15:40:40;21.10;54.40
66708;DHT22;53622;0.000;0.000;2024-03-23T15:43:08;21.20;53.10
66708;DHT22;53622;0.000;0.000;2024-03-23T15:45:34;21.20;53.60
66708;DHT22;53622;0.000;0.000;2024-03-23T15:48:02;21.20;54.60
66708;DHT22;53622;0.000;0.000;2024-03-23T15:50:29;21.20;55.20
66708;DHT22;53622;0.000;0.000;2024-03-23T15:52:57;21.20;55.30
66708;DHT22;53622;0.000;0.000;2024-03-23T15:55:24;21.30;55.30
66708;DHT22;53622;0.000;0.000;2024-03-23T15:57:53;21.30;55.20
66708;DHT22;53622;0.000;0.000;2024-03-23T16:00:20;21.30;55.20
66708;DHT22;53622;0.000;0.000;2024-03-23T16:02:48;21.30;55.00
66708;DHT22;53622;0.000;0.000;2024-03-23T16:05:14;21.30;55.10
66708;DHT22;53622;0.000;0.000;2024-03-23T16:07:43;21.30;54.90
66708;DHT22;53622;0.000;0.000;2024-03-23T16:10:09;21.30;54.90
66708;DHT22;53622;0.000;0.000;2024-03-23T16:12:38;21.30;54.70
66708;DHT22;53622;0.000;0.000;2024-03-23T16:15:08;21.30;54.70
66708;DHT22;53622;0.000;0.000;2024-03-23T16:17:36;21.30;54.70
66708;DHT22;53622;0.000;0.000;2024-03-23T16:20:03;21.30;54.60
66708;DHT22;53622;0.000;0.000;2024-03-23T16:22:35;21.30;53.90
66708;DHT22;53622;0.000;0.000;2024-03-23T16:25:02;21.30;53.50
66708;DHT22;53622;0.000;0.000;2024-03-23T16:27:30;21.30;53.70
66708;DHT22;53622;0.000;0.000;2024-03-23T16:29:57;21.30;53.80
66708;DHT22;53622;0.000;0.000;2024-03-23T16:32:26;21.30;53.40
66708;DHT22;53622;0.000;0.000;2024-03-23T16:34:55;21.30;54.40
66708;DHT22;53622;0.000;0.000;2024-03-23T16:37:24;21.30;54.20
66708;DHT22;53622;0.000;0.000;2024-03-23T16:39:51;21.30;54.10
66708;DHT22;53622;0.000;0.000;2024-03-23T16:42:19;21.30;54.20
66708;DHT22;53622;0.000;0.000;2024-03-23T16:44:46;21.30;54.20